RJGG(TAF)
8/13 2h
TAF RJGG 121705Z 1218/1400 10014KT 8000 -SHRA FEW010 BKN025 TEMPO
1218/1303 3000 SHRA BR FEW005 BKN008 FEW020CB BECMG
1220/1222 06014KT BECMG 1300/1302 32016KT TEMPO 1306/1309
4000 -SHRA BR=
戻る
トップページへ戻る
IMOC Co,.Ltd.